Albion, Oklahoma
Current Conditions -  °F | °C
As of 2:35 AM on Friday 19 Dec 2014 (Local Time) from KRKR Reporting Station
Overcast Overcast  
Wind Chill: 41°   Ceiling: 600
Heat Index: 41°   Visibility: 7mi
Dew Point: 38°   Wind: 3mph
Humidity: 90%   Direction: 10°N
Pressure: 30.2"   Gusts: NA
Location:  34.66°N, 95.1°W
Report Text: KRKR 190835Z AUTO 01003KT 7SM OVC006 05/04 A3020 RMK AO2 LTG DSNT SW T00500035
Loading
Personal Weather Stations






























Interactive Weather Map New forecast layout! Learn more

10-Day Weather Forecast

Advertisements
Track Severe Weather on mobile